Time;durP1;ratioP1;P1;durP2;ratioP2;P2;SDS_P1;SDS_P2;PMS_P1;PMS_P2;Temp;Humidity;BMP_temperature;BMP_pressure;BME280_temperature;BME280_humidity;BME280_pressure;Samples;Min_cycle;Max_cycle;Signal;HPM_P1;HPM_P2
2022/04/04 00:02:00;;;;;;;8.20;3.08;;;3.10;99.90;;;;;;5009001;28;20121;-84
2022/04/04 00:04:45;;;;;;;6.15;3.33;;;;;;;;;;5009461;28;20128;-81
2022/04/04 00:07:29;;;;;;;5.63;3.10;;;;;;;;;;4994647;28;20045;-81
2022/04/04 00:10:14;;;;;;;7.40;3.47;;;;;;;;;;4993976;28;20041;-82
2022/04/04 00:12:59;;;;;;;6.03;3.28;;;;;;;;;;5009189;28;20080;-85
2022/04/04 00:15:43;;;;;;;8.60;3.95;;;;;;;;;;5011262;28;20037;-81
2022/04/04 00:18:28;;;;;;;7.53;3.88;;;;;;;;;;5012909;28;20045;-82
2022/04/04 00:21:12;;;;;;;6.85;3.83;;;;;;;;;;5012268;28;20079;-82
2022/04/04 00:23:57;;;;;;;9.77;3.67;;;;;;;;;;5012816;28;20056;-81
2022/04/04 00:26:41;;;;;;;9.23;3.95;;;;;;;;;;4984531;28;20041;-81
2022/04/04 00:29:26;;;;;;;7.65;3.15;;;;;;;;;;5012340;28;20041;-82
2022/04/04 00:32:11;;;;;;;8.30;3.38;;;;;;;;;;5012016;28;20056;-82
2022/04/04 00:34:55;;;;;;;5.45;3.83;;;;;;;;;;4997790;28;20041;-81
2022/04/04 00:37:40;;;;;;;8.20;3.90;;;;;;;;;;5012470;28;20547;-81
2022/04/04 00:40:25;;;;;;;7.53;4.00;;;;;;;;;;5011960;28;20454;-82
2022/04/04 00:43:10;;;;;;;6.20;4.07;;;2.70;99.90;;;;;;4997305;28;20041;-82
2022/04/04 00:45:55;;;;;;;8.50;5.10;;;;;;;;;;5012283;28;20065;-81
2022/04/04 00:48:39;;;;;;;6.15;3.55;;;;;;;;;;5012335;28;20128;-81
2022/04/04 00:51:23;;;;;;;9.75;4.45;;;;;;;;;;4996925;28;20060;-81
2022/04/04 00:54:08;;;;;;;7.63;4.45;;;;;;;;;;4996772;28;20045;-81
2022/04/04 00:56:53;;;;;;;8.95;4.35;;;;;;;;;;5012221;28;20094;-81
2022/04/04 00:59:38;;;;;;;6.95;4.32;;;;;;;;;;5012213;28;20045;-81
2022/04/04 01:02:23;;;;;;;8.80;4.50;;;;;;;;;;5011499;28;20151;-81
2022/04/04 01:05:09;;;;;;;8.32;4.97;;;3.10;99.90;;;;;;4996671;28;20064;-83
2022/04/04 01:07:54;;;;;;;9.77;4.80;;;;;;;;;;5012132;28;20068;-82
2022/04/04 01:10:38;;;;;;;9.55;4.53;;;;;;;;;;4997343;28;20564;-81
2022/04/04 01:13:23;;;;;;;7.88;4.68;;;;;;;;;;5011313;28;20083;-81
2022/04/04 01:16:08;;;;;;;7.70;4.78;;;;;;;;;;5010253;28;20041;-83
2022/04/04 01:18:52;;;;;;;9.25;5.40;;;;;;;;;;5011710;28;20060;-82
2022/04/04 01:21:36;;;;;;;8.98;6.35;;;3.30;99.90;;;;;;4983400;28;20120;-82
2022/04/04 01:24:21;;;;;;;11.85;5.45;;;3.20;99.90;;;;;;4982810;28;20124;-82
2022/04/04 01:27:08;;;;;;;11.73;5.30;;;3.20;99.90;;;;;;4982896;28;20397;-82
2022/04/04 01:29:53;;;;;;;10.15;5.50;;;;;;;;;;5011620;28;20048;-82
2022/04/04 01:32:37;;;;;;;8.52;5.80;;;;;;;;;;4996791;28;20076;-82
2022/04/04 01:35:22;;;;;;;9.23;5.55;;;3.50;99.90;;;;;;4996171;28;20083;-82
2022/04/04 01:38:07;;;;;;;14.95;6.50;;;;;;;;;;4996727;28;20107;-82
2022/04/04 01:40:52;;;;;;;16.05;7.43;;;;;;;;;;4983043;28;20057;-82
2022/04/04 01:43:36;;;;;;;13.13;8.10;;;;;;;;;;4996498;28;20037;-82
2022/04/04 01:46:24;;;;;;;12.77;7.63;;;;;;;;;;4996094;28;20045;-82
2022/04/04 01:49:09;;;;;;;11.52;6.88;;;;;;;;;;4996682;28;20143;-82
2022/04/04 01:51:53;;;;;;;13.68;7.80;;;3.30;99.90;;;;;;4983049;28;20061;-82
2022/04/04 01:54:37;;;;;;;13.13;7.82;;;;;;;;;;5011290;28;20056;-82
2022/04/04 01:57:22;;;;;;;13.70;7.93;;;;;;;;;;5011079;28;20099;-81
2022/04/04 02:00:06;;;;;;;13.48;8.98;;;3.40;99.90;;;;;;4996597;28;20107;-81
2022/04/04 02:02:51;;;;;;;15.82;9.20;;;;;;;;;;4996512;28;20040;-81
2022/04/04 02:05:36;;;;;;;16.75;9.65;;;;;;;;;;4995834;28;20045;-82
2022/04/04 02:08:21;;;;;;;19.02;9.20;;;;;;;;;;5010619;28;20045;-82
2022/04/04 02:11:07;;;;;;;13.88;9.40;;;;;;;;;;4996308;28;20099;-82
2022/04/04 02:13:51;;;;;;;15.43;9.57;;;;;;;;;;5011030;28;20432;-81
2022/04/04 02:16:36;;;;;;;14.05;9.07;;;;;;;;;;5010416;28;20052;-82
2022/04/04 02:19:20;;;;;;;13.02;8.82;;;;;;;;;;5010359;28;20098;-82
2022/04/04 02:22:04;;;;;;;12.65;9.35;;;3.40;99.90;;;;;;4996207;28;20040;-82
2022/04/04 02:24:49;;;;;;;16.65;10.55;;;;;;;;;;5010814;28;20088;-81
2022/04/04 02:27:34;;;;;;;13.82;10.23;;;;;;;;;;4995422;28;20534;-81
2022/04/04 02:30:18;;;;;;;16.63;9.73;;;;;;;;;;5010171;28;20049;-82
2022/04/04 02:33:03;;;;;;;18.10;9.30;;;;;;;;;;4996079;28;20052;-82
2022/04/04 02:35:50;;;;;;;16.58;10.52;;;3.60;99.90;;;;;;4995826;28;20504;-81
2022/04/04 02:38:34;;;;;;;20.02;9.50;;;;;;;;;;4994117;28;20064;-81
2022/04/04 02:41:19;;;;;;;13.50;10.00;;;;;;;;;;4995333;28;20081;-85
2022/04/04 02:44:03;;;;;;;14.60;9.63;;;3.30;99.90;;;;;;5010521;28;20095;-81
2022/04/04 02:46:48;;;;;;;14.73;9.38;;;;;;;;;;4995792;28;20045;-81
2022/04/04 02:49:33;;;;;;;22.15;10.93;;;;;;;;;;4995010;28;20061;-81
2022/04/04 02:52:18;;;;;;;17.38;10.20;;;;;;;;;;4981818;28;20522;-84
2022/04/04 02:56:28;;;;;;;12.85;9.93;;;3.80;99.90;;;;;;4995750;28;20050;-81
2022/04/04 02:58:08;;;;;;;16.48;10.45;;;;;;;;;;5010225;28;20037;-81
2022/04/04 03:00:52;;;;;;;14.23;8.43;;;;;;;;;;4995586;28;20087;-81
2022/04/04 03:03:38;;;;;;;13.60;9.55;;;;;;;;;;4994991;28;20072;-80
2022/04/04 03:06:22;;;;;;;14.63;9.57;;;;;;;;;;5009773;28;20535;-84
2022/04/04 03:09:07;;;;;;;19.88;10.38;;;;;;;;;;4995497;28;20049;-81
2022/04/04 03:11:52;;;;;;;18.55;10.15;;;;;;;;;;4995502;28;20099;-81
2022/04/04 03:14:36;;;;;;;17.60;10.07;;;;;;;;;;5009522;28;20042;-83
2022/04/04 03:17:21;;;;;;;17.42;10.98;;;;;;;;;;5009945;28;20406;-84
2022/04/04 03:20:09;;;;;;;17.80;10.55;;;3.90;99.90;;;;;;5010011;28;20127;-82
2022/04/04 03:22:55;;;;;;;17.13;9.85;;;4.30;99.90;;;;;;5010306;28;20045;-81
2022/04/04 03:25:40;;;;;;;16.27;10.57;;;;;;;;;;5009385;28;20084;-82
2022/04/04 03:28:25;;;;;;;18.17;11.48;;;;;;;;;;4994587;28;20044;-84
2022/04/04 03:31:10;;;;;;;17.92;10.80;;;;;;;;;;4995111;28;20048;-81
2022/04/04 03:33:55;;;;;;;17.33;11.63;;;;;;;;;;4995245;28;20056;-81
2022/04/04 03:36:39;;;;;;;18.95;11.52;;;;;;;;;;4994391;28;20052;-81
2022/04/04 03:39:24;;;;;;;15.70;10.13;;;;;;;;;;4994457;28;20409;-84
2022/04/04 03:42:08;;;;;;;19.13;10.80;;;;;;;;;;4994984;28;20405;-81
2022/04/04 03:44:53;;;;;;;21.55;11.77;;;;;;;;;;4994843;28;20040;-81
2022/04/04 03:47:38;;;;;;;25.05;10.85;;;4.90;99.90;;;;;;4994412;28;20493;-83
2022/04/04 03:50:23;;;;;;;17.98;10.18;;;;;;;;;;4994528;28;20263;-81
2022/04/04 03:53:08;;;;;;;19.88;10.70;;;;;;;;;;4994972;28;20179;-81
2022/04/04 03:55:53;;;;;;;16.10;10.65;;;;;;;;;;5009571;28;20505;-82
2022/04/04 03:58:40;;;;;;;17.38;10.73;;;4.80;99.90;;;;;;5008933;28;20467;-83
2022/04/04 04:01:27;;;;;;;17.73;10.60;;;;;;;;;;5009533;28;20045;-81
2022/04/04 04:04:11;;;;;;;18.77;11.05;;;;;;;;;;4981483;28;20465;-81
2022/04/04 04:06:56;;;;;;;15.20;10.25;;;;;;;;;;5009405;28;20087;-81
2022/04/04 04:09:41;;;;;;;17.98;10.68;;;;;;;;;;5008820;28;20083;-82
2022/04/04 04:12:26;;;;;;;18.83;10.65;;;;;;;;;;5009342;28;20045;-83
2022/04/04 04:15:13;;;;;;;17.08;10.13;;;4.70;99.90;;;;;;4994646;28;20041;-81
2022/04/04 04:17:57;;;;;;;17.77;10.43;;;;;;;;;;5009208;28;20059;-80
2022/04/04 04:20:42;;;;;;;17.23;10.82;;;;;;;;;;4980232;28;20049;-81
2022/04/04 04:23:26;;;;;;;16.30;10.77;;;;;;;;;;4994417;28;20037;-81
2022/04/04 04:26:13;;;;;;;17.42;10.88;;;;;;;;;;5009445;28;20535;-81
2022/04/04 04:28:58;;;;;;;20.10;11.20;;;;;;;;;;4994371;28;20091;-81
2022/04/04 04:31:42;;;;;;;17.48;10.50;;;;;;;;;;5008527;28;20501;-81
2022/04/04 04:34:27;;;;;;;17.58;10.13;;;;;;;;;;5009233;28;20091;-81
2022/04/04 04:37:12;;;;;;;16.92;10.60;;;;;;;;;;5009179;28;20102;-80
2022/04/04 04:39:56;;;;;;;20.23;10.88;;;4.80;99.90;;;;;;5008487;28;20524;-80
2022/04/04 04:42:42;;;;;;;16.60;10.38;;;4.70;99.90;;;;;;4980141;28;20045;-81
2022/04/04 04:45:27;;;;;;;18.80;11.43;;;;;;;;;;4980599;28;20040;-80
2022/04/04 04:48:12;;;;;;;20.80;12.05;;;;;;;;;;4994395;28;20091;-80
2022/04/04 04:50:56;;;;;;;15.80;9.30;;;4.70;99.90;;;;;;4993611;28;20083;-81
2022/04/04 04:53:40;;;;;;;15.85;10.35;;;;;;;;;;4980148;28;20038;-81
2022/04/04 04:56:25;;;;;;;17.92;10.27;;;;;;;;;;4994155;28;20087;-81
2022/04/04 04:59:10;;;;;;;16.67;10.05;;;;;;;;;;4994299;28;20072;-80
2022/04/04 05:01:55;;;;;;;17.75;11.00;;;;;;;;;;5008942;28;20036;-80
2022/04/04 05:04:40;;;;;;;16.45;10.93;;;;;;;;;;4996798;28;20092;-83
2022/04/04 05:07:24;;;;;;;19.33;10.20;;;;;;;;;;5012225;28;20129;-81
2022/04/04 05:10:09;;;;;;;20.40;11.68;;;4.90;99.90;;;;;;4997464;28;20413;-80
2022/04/04 05:12:53;;;;;;;15.93;11.45;;;;;;;;;;4996556;28;20052;-80
2022/04/04 05:15:38;;;;;;;20.92;12.48;;;;;;;;;;4996748;28;20049;-84
2022/04/04 05:18:23;;;;;;;21.70;11.82;;;;;;;;;;4997297;28;20057;-80
2022/04/04 05:21:09;;;;;;;20.30;10.90;;;;;;;;;;5012008;28;20456;-81
2022/04/04 05:23:54;;;;;;;20.40;11.98;;;;;;;;;;4996406;28;20106;-80
2022/04/04 05:26:39;;;;;;;17.15;11.43;;;;;;;;;;4996756;28;20588;-83
2022/04/04 05:29:26;;;;;;;18.67;11.95;;;;;;;;;;4997004;28;20539;-81
2022/04/04 05:32:10;;;;;;;21.40;11.70;;;;;;;;;;4983456;28;20421;-81
2022/04/04 05:34:55;;;;;;;20.15;12.80;;;;;;;;;;5011115;28;20053;-82
2022/04/04 05:37:41;;;;;;;20.35;12.73;;;;;;;;;;4996413;28;20056;-83
2022/04/04 05:40:25;;;;;;;19.35;12.65;;;4.60;99.90;;;;;;5011679;28;20061;-81
2022/04/04 05:43:10;;;;;;;20.92;12.43;;;4.70;99.90;;;;;;5011546;28;20041;-80
2022/04/04 05:45:54;;;;;;;25.20;12.90;;;;;;;;;;4982541;28;20040;-81
2022/04/04 05:48:39;;;;;;;20.92;12.95;;;;;;;;;;5011610;28;20087;-81
2022/04/04 05:51:24;;;;;;;23.65;12.15;;;;;;;;;;5011603;28;20079;-81
2022/04/04 05:54:09;;;;;;;21.40;13.60;;;;;;;;;;4996769;28;20045;-81
2022/04/04 05:56:53;;;;;;;20.02;12.60;;;4.60;99.90;;;;;;4996119;28;20562;-81
2022/04/04 05:59:38;;;;;;;20.25;12.05;;;;;;;;;;4996570;28;20123;-81
2022/04/04 06:02:23;;;;;;;19.42;12.70;;;;;;;;;;5011356;28;20045;-82
2022/04/04 06:05:09;;;;;;;19.48;11.95;;;4.60;99.90;;;;;;4996228;28;20040;-81
2022/04/04 06:07:53;;;;;;;20.98;13.48;;;;;;;;;;4982346;28;20087;-82
2022/04/04 06:10:38;;;;;;;22.88;13.75;;;;;;;;;;4996576;28;20044;-81
2022/04/04 06:13:22;;;;;;;23.10;14.10;;;4.60;99.90;;;;;;5010892;28;20539;-82
2022/04/04 06:16:06;;;;;;;19.58;13.75;;;4.80;99.90;;;;;;4995561;28;20060;-82
2022/04/04 06:18:51;;;;;;;24.40;15.10;;;;;;;;;;5010336;28;20045;-82
2022/04/04 06:21:36;;;;;;;22.27;14.10;;;;;;;;;;5011075;28;20044;-82
2022/04/04 06:24:20;;;;;;;22.48;13.65;;;4.40;99.90;;;;;;4996206;28;20076;-81
2022/04/04 06:27:04;;;;;;;22.00;14.05;;;4.50;99.90;;;;;;5010236;28;20098;-82
2022/04/04 06:29:49;;;;;;;23.85;14.93;;;4.50;99.90;;;;;;4995437;28;20500;-82
2022/04/04 06:32:34;;;;;;;27.38;13.55;;;;;;;;;;4982571;28;20041;-82
2022/04/04 06:35:18;;;;;;;27.38;14.55;;;;;;;;;;4982331;28;20044;-82
2022/04/04 06:38:03;;;;;;;27.20;16.30;;;4.40;99.90;;;;;;4995250;28;20052;-81
2022/04/04 06:40:49;;;;;;;21.98;14.73;;;4.40;99.90;;;;;;5010492;28;20100;-84
2022/04/04 06:43:34;;;;;;;24.25;13.35;;;4.40;99.90;;;;;;4995920;28;20041;-81
2022/04/04 06:46:18;;;;;;;24.83;15.13;;;4.70;99.90;;;;;;5010658;28;20086;-81
2022/04/04 06:49:07;;;;;;;26.60;15.02;;;4.40;99.90;;;;;;5009950;28;20090;-81
2022/04/04 06:51:52;;;;;;;24.20;15.32;;;4.20;99.90;;;;;;4995166;28;20119;-82
2022/04/04 06:54:37;;;;;;;23.52;14.07;;;;;;;;;;5010424;28;20056;-81
2022/04/04 06:57:26;;;;;;;18.83;12.60;;;4.40;99.90;;;;;;5010646;28;20040;-81
2022/04/04 07:00:11;;;;;;;22.13;13.68;;;4.30;99.90;;;;;;5009705;28;20072;-81
2022/04/04 07:02:57;;;;;;;23.20;14.13;;;4.20;99.90;;;;;;4994861;28;20040;-81
2022/04/04 07:05:42;;;;;;;19.73;13.48;;;;;;;;;;5010439;28;20052;-81
2022/04/04 07:08:28;;;;;;;19.50;13.07;;;4.30;99.90;;;;;;5010352;28;20080;-82
2022/04/04 07:11:13;;;;;;;23.08;13.80;;;;;;;;;;4981571;28;20446;-81
2022/04/04 07:13:57;;;;;;;21.00;15.38;;;4.20;99.90;;;;;;4994897;28;20044;-81
2022/04/04 07:16:42;;;;;;;21.67;12.70;;;4.00;99.90;;;;;;4981828;28;20076;-82
2022/04/04 07:19:32;;;;;;;23.73;14.02;;;4.30;99.90;;;;;;4981694;28;20518;-80
2022/04/04 07:22:17;;;;;;;23.33;13.63;;;;;;;;;;4996002;28;20048;-81
2022/04/04 07:25:07;;;;;;;23.23;13.73;;;4.10;99.90;;;;;;4980427;28;20049;-82
2022/04/04 07:27:52;;;;;;;26.63;13.60;;;;;;;;;;4995904;28;20081;-83
2022/04/04 07:30:36;;;;;;;22.85;13.98;;;;;;;;;;4995220;28;20056;-81
2022/04/04 07:33:20;;;;;;;23.83;15.10;;;;;;;;;;4981531;28;20455;-81
2022/04/04 07:36:05;;;;;;;21.40;13.65;;;4.40;99.90;;;;;;5009193;28;20049;-81
2022/04/04 07:38:50;;;;;;;23.40;14.35;;;4.50;99.90;;;;;;4981067;28;20052;-81
2022/04/04 07:41:34;;;;;;;19.20;13.93;;;4.30;99.90;;;;;;4981050;28;20143;-81
2022/04/04 07:44:18;;;;;;;23.27;14.90;;;4.60;99.90;;;;;;5009332;28;20167;-81
2022/04/04 07:47:03;;;;;;;19.50;13.50;;;4.60;99.90;;;;;;4994414;28;20125;-82
2022/04/04 07:49:48;;;;;;;23.60;14.32;;;4.70;99.90;;;;;;4994914;28;20091;-82
2022/04/04 07:52:32;;;;;;;;;;;6.10;99.90;;;;;;4995256;28;20046;-82
2022/04/04 07:55:16;;;;;;;19.83;13.25;;;5.00;99.90;;;;;;4994330;28;20002;-81
2022/04/04 07:58:00;;;;;;;20.20;11.68;;;4.60;99.90;;;;;;5008937;28;20041;-82
2022/04/04 08:00:44;;;;;;;;;;;5.30;99.90;;;;;;5009971;28;20493;-83
2022/04/04 08:03:29;;;;;;;23.92;12.63;;;4.10;99.90;;;;;;5009518;28;20318;-81
2022/04/04 08:06:14;;;;;;;18.85;12.82;;;;;;;;;;5008878;28;20087;-81
2022/04/04 08:08:58;;;;;;;25.63;14.45;;;;;;;;;;4994267;28;20045;-85
2022/04/04 08:11:43;;;;;;;20.95;12.88;;;4.70;99.90;;;;;;4994804;28;20045;-81
2022/04/04 08:14:27;;;;;;;;;;;4.90;99.90;;;;;;4995127;28;20117;-81
2022/04/04 08:17:11;;;;;;;20.80;11.38;;;;;;;;;;5021737;28;19920;-81
2022/04/04 08:19:56;;;;;;;19.73;11.40;;;5.50;99.90;;;;;;5009235;28;20053;-82
2022/04/04 08:22:42;;;;;;;18.92;10.85;;;4.90;99.90;;;;;;4994479;28;20045;-82
2022/04/04 08:25:26;;;;;;;21.30;12.43;;;;;;;;;;4980914;28;20121;-81
2022/04/04 08:28:11;;;;;;;15.90;10.93;;;;;;;;;;5008740;28;20549;-81
2022/04/04 08:30:55;;;;;;;16.73;10.02;;;;;;;;;;4994539;28;20041;-81
2022/04/04 08:33:40;;;;;;;14.57;9.45;;;;;;;;;;5009257;28;20079;-81
2022/04/04 08:36:24;;;;;;;13.15;8.48;;;;;;;;;;4980271;28;20040;-81
2022/04/04 08:39:09;;;;;;;14.38;9.57;;;;;;;;;;4996943;28;20053;-82
2022/04/04 08:41:56;;;;;;;13.20;7.28;;;5.00;99.90;;;;;;4997765;28;20078;-81
2022/04/04 08:44:40;;;;;;;13.40;8.45;;;;;;;;;;4997592;28;20082;-81
2022/04/04 08:47:26;;;;;;;13.63;8.40;;;5.10;99.90;;;;;;4996961;28;20087;-81
2022/04/04 08:50:11;;;;;;;13.18;7.55;;;5.00;99.90;;;;;;5011871;28;20121;-81
2022/04/04 08:52:56;;;;;;;15.75;6.15;;;;;;;;;;5012194;28;20041;-81
2022/04/04 08:55:40;;;;;;;9.57;4.93;;;;;;;;;;5012450;28;20125;-81
2022/04/04 08:58:25;;;;;;;10.05;5.10;;;;;;;;;;5011566;28;20056;-81
2022/04/04 09:01:10;;;;;;;10.63;5.20;;;;;;;;;;5011604;28;20175;-81
2022/04/04 09:04:03;;;;;;;9.75;5.03;;;5.40;99.90;;;;;;4997247;28;20143;-81
2022/04/04 09:06:56;;;;;;;7.70;4.85;;;5.10;99.90;;;;;;5012037;28;20500;-81
2022/04/04 09:09:42;;;;;;;8.15;4.10;;;5.40;99.90;;;;;;4997307;28;20049;-81
2022/04/04 09:12:27;;;;;;;8.90;4.25;;;;;;;;;;5011419;28;20492;-81
2022/04/04 09:15:12;;;;;;;8.70;3.55;;;;;;;;;;4996477;28;20495;-81
2022/04/04 09:17:56;;;;;;;6.13;3.20;;;5.20;99.90;;;;;;4997097;28;20118;-82
2022/04/04 09:20:52;;;;;;;4.20;2.95;;;5.40;99.90;;;;;;4983547;28;20100;-81
2022/04/04 09:23:54;;;;;;;5.75;3.10;;;5.50;99.90;;;;;;4997159;28;20072;-81
2022/04/04 09:26:43;;;;;;;4.68;2.78;;;5.60;99.90;;;;;;4997130;28;20082;-81
2022/04/04 09:29:28;;;;;;;5.78;2.30;;;;;;;;;;5011194;28;20051;-81
2022/04/04 09:32:15;;;;;;;5.38;3.00;;;;;;;;;;5010847;28;20045;-83
2022/04/04 09:35:04;;;;;;;7.10;3.70;;;5.60;99.90;;;;;;4997524;28;20520;-81
2022/04/04 09:37:50;;;;;;;5.00;2.95;;;5.60;99.90;;;;;;4997467;28;20045;-81
2022/04/04 09:40:35;;;;;;;5.38;2.80;;;;;;;;;;5011612;28;20562;-81
2022/04/04 09:43:19;;;;;;;5.10;2.67;;;5.70;99.90;;;;;;5010990;28;20146;-81
2022/04/04 09:46:10;;;;;;;7.10;3.25;;;5.60;99.90;;;;;;5010755;28;20091;-81
2022/04/04 09:49:16;;;;;;;4.60;2.63;;;5.70;99.90;;;;;;5010962;28;20125;-81
2022/04/04 09:52:01;;;;;;;8.95;4.55;;;;;;;;;;4996545;28;20122;-82
2022/04/04 09:54:46;;;;;;;8.10;3.78;;;5.70;99.90;;;;;;5010965;28;20087;-86
2022/04/04 09:57:30;;;;;;;7.78;3.97;;;5.70;99.90;;;;;;4996131;28;20044;-85
2022/04/04 10:00:18;;;;;;;;;;;5.70;99.90;;;;;;5010273;28;20037;-82
2022/04/04 10:03:04;;;;;;;6.45;2.80;;;5.80;99.90;;;;;;4996539;28;19925;-81
2022/04/04 10:05:56;;;;;;;6.93;3.28;;;5.60;99.90;;;;;;5011172;28;20049;-82
2022/04/04 10:08:44;;;;;;;6.75;3.10;;;5.90;99.90;;;;;;4996431;28;20086;-81
2022/04/04 10:11:30;;;;;;;8.27;3.10;;;5.80;99.90;;;;;;5010589;28;20057;-81
2022/04/04 10:14:16;;;;;;;8.50;3.22;;;5.80;99.90;;;;;;4996159;28;20501;-82
2022/04/04 10:17:01;;;;;;;6.97;3.17;;;5.80;99.90;;;;;;4996097;28;20048;-81
2022/04/04 10:19:46;;;;;;;10.15;3.50;;;5.80;99.90;;;;;;5011029;28;20060;-81
2022/04/04 10:22:31;;;;;;;6.45;2.80;;;6.00;99.90;;;;;;5010446;28;20121;-80
2022/04/04 10:25:18;;;;;;;5.20;3.22;;;5.90;99.90;;;;;;4995767;28;20082;-84
2022/04/04 10:28:02;;;;;;;8.60;4.43;;;;;;;;;;5010853;28;20480;-81
2022/04/04 10:30:49;;;;;;;6.05;3.08;;;5.90;99.90;;;;;;4982624;28;20041;-81
2022/04/04 10:33:33;;;;;;;9.82;3.85;;;;;;;;;;4995486;28;20091;-81
2022/04/04 10:36:22;;;;;;;8.45;4.15;;;5.90;99.90;;;;;;4995534;28;20497;-82
2022/04/04 10:39:09;;;;;;;7.80;4.55;;;6.00;99.90;;;;;;4982029;28;20049;-80
2022/04/04 10:41:57;;;;;;;8.15;3.10;;;6.00;99.90;;;;;;5010471;28;20183;-81
2022/04/04 10:44:47;;;;;;;6.45;3.28;;;5.90;99.90;;;;;;4995446;28;20045;-82
2022/04/04 10:47:32;;;;;;;7.45;3.55;;;;;;;;;;5010076;28;20049;-81
2022/04/04 10:50:25;;;;;;;7.55;3.72;;;6.10;99.90;;;;;;4993257;28;20095;-84
2022/04/04 10:53:10;;;;;;;8.30;3.72;;;;;;;;;;5007062;28;20044;-82
2022/04/04 10:55:55;;;;;;;4.35;3.17;;;;;;;;;;4991569;28;20535;-83
2022/04/04 10:58:40;;;;;;;6.25;3.53;;;;;;;;;;5005623;28;20133;-82
2022/04/04 11:01:24;;;;;;;8.57;3.58;;;;;;;;;;5005173;28;20045;-83
2022/04/04 11:04:23;;;;;;;5.03;3.15;;;6.30;99.90;;;;;;5006231;28;20037;-81
2022/04/04 11:10:38;;;;;;;5.32;2.90;;;6.30;99.90;;;;;;5006322;28;20459;-81
2022/04/04 11:13:24;;;;;;;9.23;3.38;;;;;;;;;;5005645;28;20041;-82
2022/04/04 11:16:11;;;;;;;5.05;2.70;;;;;;;;;;4991821;28;20091;-81
2022/04/04 11:18:55;;;;;;;5.45;2.92;;;;;;;;;;4990894;28;20540;-83
2022/04/04 11:21:42;;;;;;;6.05;3.00;;;6.40;99.90;;;;;;4987496;28;20041;-81
2022/04/04 11:24:30;;;;;;;8.07;2.70;;;6.50;99.90;;;;;;5007293;28;20060;-82
2022/04/04 11:27:15;;;;;;;5.18;2.80;;;;;;;;;;5008796;28;20053;-81
2022/04/04 11:30:01;;;;;;;5.18;2.42;;;6.60;99.90;;;;;;4981836;28;20076;-82
2022/04/04 11:32:49;;;;;;;6.45;2.80;;;6.60;99.90;;;;;;5009382;28;20068;-81
2022/04/04 11:35:34;;;;;;;5.07;2.45;;;;;;;;;;4994544;28;20079;-81
2022/04/04 11:38:22;;;;;;;6.03;2.17;;;;;;;;;;5009916;28;20036;-82
2022/04/04 11:41:11;;;;;;;3.13;2.13;;;6.80;99.90;;;;;;5009682;28;20175;-81
2022/04/04 11:43:56;;;;;;;4.10;2.00;;;6.80;99.90;;;;;;5009749;28;20067;-81
2022/04/04 11:46:40;;;;;;;4.40;1.98;;;6.60;99.90;;;;;;5009202;28;20049;-81
2022/04/04 11:49:35;;;;;;;3.55;1.98;;;6.90;99.90;;;;;;5008416;28;20129;-84
2022/04/04 11:52:23;;;;;;;5.47;2.00;;;6.70;99.90;;;;;;4995180;28;20037;-81
2022/04/04 11:55:10;;;;;;;4.57;1.88;;;6.90;99.90;;;;;;4995570;28;20045;-81
2022/04/04 11:58:15;;;;;;;5.32;1.95;;;7.10;99.90;;;;;;4995177;28;20048;-81
2022/04/04 12:01:06;;;;;;;;;;;7.00;99.90;;;;;;4997444;28;20092;-82
2022/04/04 12:03:51;;;;;;;7.40;2.05;;;;;;;;;;5009290;28;19917;-82
2022/04/04 12:06:37;;;;;;;3.70;2.00;;;;;;;;;;5009303;28;20117;-81
2022/04/04 12:09:51;;;;;;;5.22;1.60;;;7.00;99.90;;;;;;4981303;28;20129;-82
2022/04/04 12:12:36;;;;;;;3.25;1.67;;;7.00;99.90;;;;;;5012074;28;20056;-82
2022/04/04 12:15:30;;;;;;;2.70;1.27;;;7.10;99.90;;;;;;5013041;28;20469;-81
2022/04/04 12:18:23;;;;;;;4.32;1.70;;;6.90;99.90;;;;;;4997943;28;20037;-82
2022/04/04 12:21:08;;;;;;;3.20;1.50;;;;;;;;;;5012863;28;20095;-81
2022/04/04 12:27:12;;;;;;;3.53;1.67;;;7.10;99.90;;;;;;5010263;28;20123;-81
2022/04/04 12:30:03;;;;;;;4.15;1.50;;;7.10;99.90;;;;;;4997920;28;20098;-82
2022/04/04 12:32:47;;;;;;;2.47;1.15;;;;;;;;;;5012105;28;20037;-81
2022/04/04 12:35:32;;;;;;;2.50;1.90;;;;;;;;;;4996925;28;20501;-84
2022/04/04 12:38:36;;;;;;;2.40;1.70;;;7.60;99.90;;;;;;4987095;28;20122;-81
2022/04/04 12:41:21;;;;;;;3.30;1.80;;;;;;;;;;5007703;28;20195;-82
2022/04/04 12:44:06;;;;;;;3.00;1.63;;;;;;;;;;4996237;28;20154;-81
2022/04/04 12:46:51;;;;;;;3.50;1.88;;;;;;;;;;5010517;28;20087;-82
2022/04/04 12:49:37;;;;;;;2.28;1.60;;;;;;;;;;4993919;28;20401;-82
2022/04/04 12:52:22;;;;;;;3.88;1.50;;;;;;;;;;5010184;28;20042;-82
2022/04/04 12:55:13;;;;;;;2.72;1.48;;;7.40;99.90;;;;;;4995921;28;20042;-81
2022/04/04 12:58:20;;;;;;;2.65;1.48;;;7.50;99.90;;;;;;5010496;28;20049;-81
2022/04/04 13:01:15;;;;;;;2.78;1.73;;;7.40;99.90;;;;;;5008957;28;20061;-81
2022/04/04 13:04:00;;;;;;;2.13;1.23;;;;;;;;;;4995969;28;20057;-81
2022/04/04 13:06:45;;;;;;;2.25;1.30;;;;;;;;;;5010101;28;20481;-82
2022/04/04 13:09:30;;;;;;;4.40;1.67;;;7.60;99.90;;;;;;5010790;28;20566;-81
2022/04/04 13:12:24;;;;;;;1.88;1.23;;;7.60;99.90;;;;;;5010664;28;20044;-81
2022/04/04 13:15:09;;;;;;;2.33;1.30;;;7.80;99.90;;;;;;5010177;28;20135;-80
2022/04/04 13:17:54;;;;;;;3.63;1.35;;;;;;;;;;5009738;28;20944;-81
2022/04/04 13:20:39;;;;;;;2.10;1.40;;;;;;;;;;4995139;28;20088;-81
2022/04/04 13:23:23;;;;;;;2.60;1.55;;;;;;;;;;5009708;28;20041;-81
2022/04/04 13:26:08;;;;;;;2.83;1.48;;;;;;;;;;5010467;28;20048;-82
2022/04/04 13:28:53;;;;;;;2.65;1.50;;;;;;;;;;4994990;28;20091;-81
2022/04/04 13:31:39;;;;;;;2.08;1.30;;;8.00;99.90;;;;;;5010030;28;20065;-86
2022/04/04 13:34:23;;;;;;;2.42;1.50;;;;;;;;;;5010285;28;20068;-81
2022/04/04 13:37:08;;;;;;;3.15;1.58;;;8.10;99.90;;;;;;5010243;28;20501;-81
2022/04/04 13:39:54;;;;;;;2.60;1.45;;;;;;;;;;4994614;28;20079;-82
2022/04/04 13:42:39;;;;;;;2.90;1.50;;;;;;;;;;4995126;28;20063;-85
2022/04/04 13:45:23;;;;;;;3.00;1.48;;;;;;;;;;5010169;28;20045;-82
2022/04/04 13:48:08;;;;;;;3.03;1.60;;;8.20;99.90;;;;;;4995472;28;20045;-81
2022/04/04 13:50:54;;;;;;;2.78;1.60;;;;;;;;;;4994777;28;20041;-83
2022/04/04 13:53:38;;;;;;;2.92;1.45;;;;;;;;;;5009759;28;20041;-83
2022/04/04 13:56:23;;;;;;;3.42;1.65;;;;;;;;;;5009755;28;20094;-81
2022/04/04 13:59:08;;;;;;;3.85;2.05;;;;;;;;;;5009970;28;20076;-81
2022/04/04 14:01:52;;;;;;;4.05;2.05;;;8.30;99.90;;;;;;5009457;28;20563;-81
2022/04/04 14:04:38;;;;;;;4.45;2.20;;;;;;;;;;4994059;28;20500;-81
2022/04/04 14:07:22;;;;;;;3.50;2.38;;;;;;;;;;5009339;28;20055;-82
2022/04/04 14:10:08;;;;;;;4.80;2.83;;;8.60;99.90;;;;;;4994765;28;20487;-81
2022/04/04 14:12:53;;;;;;;5.38;3.00;;;;;;;;;;5008752;28;20041;-82
2022/04/04 14:15:37;;;;;;;5.43;3.38;;;;;;;;;;5009774;28;20401;-81
2022/04/04 14:18:22;;;;;;;7.00;3.00;;;;;;;;;;4993033;28;20081;-82
2022/04/04 14:21:08;;;;;;;6.88;3.38;;;8.60;99.90;;;;;;4990848;28;20041;-81
2022/04/04 14:23:52;;;;;;;15.50;4.88;;;8.80;99.90;;;;;;5010357;28;20036;-81
2022/04/04 14:26:37;;;;;;;5.80;3.90;;;;;;;;;;4995688;28;20049;-84
2022/04/04 14:29:21;;;;;;;7.47;3.72;;;8.80;99.90;;;;;;5010330;28;20099;-80
2022/04/04 14:32:06;;;;;;;5.85;3.17;;;9.50;99.90;;;;;;5009959;28;20049;-80
2022/04/04 14:34:51;;;;;;;9.50;3.40;;;8.90;99.90;;;;;;5010209;28;20134;-80
2022/04/04 14:37:35;;;;;;;5.82;3.00;;;9.10;99.90;;;;;;5024027;28;20098;-80
2022/04/04 14:40:20;;;;;;;8.10;3.25;;;8.80;99.90;;;;;;4995948;28;20157;-80
2022/04/04 14:43:04;;;;;;;6.63;3.13;;;8.80;99.90;;;;;;5009779;28;20099;-80
2022/04/04 14:45:50;;;;;;;5.95;3.28;;;;;;;;;;5010159;28;20067;-80
2022/04/04 14:48:34;;;;;;;7.15;3.00;;;9.00;99.90;;;;;;4995826;28;20072;-80
2022/04/04 14:51:19;;;;;;;8.30;3.65;;;;;;;;;;4982020;28;20094;-80
2022/04/04 14:54:03;;;;;;;8.88;3.65;;;8.90;99.90;;;;;;4998115;28;20040;-80
2022/04/04 14:56:49;;;;;;;10.30;4.22;;;;;;;;;;5003793;28;20166;-86
2022/04/04 14:59:34;;;;;;;10.73;4.03;;;;;;;;;;5023590;28;20086;-80
2022/04/04 15:02:18;;;;;;;15.85;4.75;;;;;;;;;;5009409;28;20037;-80
2022/04/04 15:05:03;;;;;;;13.25;4.53;;;9.40;99.90;;;;;;4995159;28;20402;-80
2022/04/04 15:07:48;;;;;;;19.70;5.18;;;;;;;;;;4995694;28;20413;-84
2022/04/04 15:10:32;;;;;;;17.83;5.43;;;;;;;;;;5009244;28;20041;-80
2022/04/04 15:13:17;;;;;;;17.48;5.05;;;;;;;;;;4995325;28;20091;-80
2022/04/04 15:16:01;;;;;;;18.08;5.60;;;;;;;;;;4992840;28;20558;-81
2022/04/04 15:18:46;;;;;;;15.43;4.95;;;;;;;;;;4981364;28;20090;-80
2022/04/04 15:21:31;;;;;;;24.77;5.75;;;9.50;99.90;;;;;;4995064;28;20041;-80
2022/04/04 15:24:17;;;;;;;20.77;5.00;;;;;;;;;;5009735;28;20547;-80
2022/04/04 15:27:02;;;;;;;19.35;5.68;;;;;;;;;;5009471;28;20539;-81
2022/04/04 15:29:47;;;;;;;18.33;5.32;;;;;;;;;;5010037;28;20048;-80
2022/04/04 15:32:31;;;;;;;19.95;5.18;;;;;;;;;;5010132;28;20128;-80
2022/04/04 15:35:16;;;;;;;16.05;4.97;;;;;;;;;;5022058;28;20045;-80
2022/04/04 15:38:01;;;;;;;21.52;5.25;;;;;;;;;;5009043;28;20164;-81